sensor_id;sensor_type;location;lat;lon;timestamp;P1;durP1;ratioP1;P2;durP2;ratioP2
74457;SDS011;62896;51.032;3.712;2024-02-04T00:02:18;17.4;;;7.6;;
74457;SDS011;62896;51.032;3.712;2024-02-04T00:05:38;17.4;;;7.6;;
74457;SDS011;62896;51.032;3.712;2024-02-04T00:08:58;17.4;;;7.6;;
74457;SDS011;62896;51.032;3.712;2024-02-04T00:12:18;18.6;;;5.7;;
74457;SDS011;62896;51.032;3.712;2024-02-04T00:15:38;18.6;;;5.7;;
74457;SDS011;62896;51.032;3.712;2024-02-04T00:18:58;18.6;;;5.7;;
74457;SDS011;62896;51.032;3.712;2024-02-04T00:22:18;18.6;;;5.7;;
74457;SDS011;62896;51.032;3.712;2024-02-04T00:25:38;18.6;;;5.7;;
74457;SDS011;62896;51.032;3.712;2024-02-04T00:28:58;18.6;;;5.7;;
74457;SDS011;62896;51.032;3.712;2024-02-04T00:32:18;18.6;;;5.7;;
74457;SDS011;62896;51.032;3.712;2024-02-04T00:35:38;23.3;;;6.4;;
74457;SDS011;62896;51.032;3.712;2024-02-04T00:38:58;23.3;;;6.4;;
74457;SDS011;62896;51.032;3.712;2024-02-04T00:42:18;23.3;;;6.4;;
74457;SDS011;62896;51.032;3.712;2024-02-04T00:45:38;23.3;;;6.4;;
74457;SDS011;62896;51.032;3.712;2024-02-04T00:48:58;23.3;;;6.4;;
74457;SDS011;62896;51.032;3.712;2024-02-04T00:52:18;23.3;;;6.4;;
74457;SDS011;62896;51.032;3.712;2024-02-04T00:55:38;23.3;;;6.4;;
74457;SDS011;62896;51.032;3.712;2024-02-04T00:58:58;23.3;;;6.4;;
74457;SDS011;62896;51.032;3.712;2024-02-04T01:02:18;17.2;;;6.6;;
74457;SDS011;62896;51.032;3.712;2024-02-04T01:05:38;17.2;;;6.6;;
74457;SDS011;62896;51.032;3.712;2024-02-04T01:08:58;17.2;;;6.6;;
74457;SDS011;62896;51.032;3.712;2024-02-04T01:12:18;17.2;;;6.6;;
74457;SDS011;62896;51.032;3.712;2024-02-04T01:15:38;17.2;;;6.6;;
74457;SDS011;62896;51.032;3.712;2024-02-04T01:18:58;17.2;;;6.6;;
74457;SDS011;62896;51.032;3.712;2024-02-04T01:22:18;17.2;;;6.6;;
74457;SDS011;62896;51.032;3.712;2024-02-04T01:25:38;20.8;;;8.1;;
74457;SDS011;62896;51.032;3.712;2024-02-04T01:28:58;20.8;;;8.1;;
74457;SDS011;62896;51.032;3.712;2024-02-04T01:32:18;20.8;;;8.1;;
74457;SDS011;62896;51.032;3.712;2024-02-04T01:35:38;20.8;;;8.1;;
74457;SDS011;62896;51.032;3.712;2024-02-04T01:38:58;20.8;;;8.1;;
74457;SDS011;62896;51.032;3.712;2024-02-04T01:42:18;20.8;;;8.1;;
74457;SDS011;62896;51.032;3.712;2024-02-04T01:45:38;20.8;;;8.1;;
74457;SDS011;62896;51.032;3.712;2024-02-04T01:48:58;20.8;;;8.1;;
74457;SDS011;62896;51.032;3.712;2024-02-04T01:52:18;24.5;;;9.1;;
74457;SDS011;62896;51.032;3.712;2024-02-04T01:55:38;24.5;;;9.1;;
74457;SDS011;62896;51.032;3.712;2024-02-04T01:58:58;24.5;;;9.1;;
74457;SDS011;62896;51.032;3.712;2024-02-04T02:02:18;24.5;;;9.1;;
74457;SDS011;62896;51.032;3.712;2024-02-04T02:05:39;24.5;;;9.1;;
74457;SDS011;62896;51.032;3.712;2024-02-04T02:08:58;24.5;;;9.1;;
74457;SDS011;62896;51.032;3.712;2024-02-04T02:12:18;24.5;;;9.1;;
74457;SDS011;62896;51.032;3.712;2024-02-04T02:15:39;22.3;;;8.1;;
74457;SDS011;62896;51.032;3.712;2024-02-04T02:18:59;22.3;;;8.1;;
74457;SDS011;62896;51.032;3.712;2024-02-04T02:22:23;22.3;;;8.1;;
74457;SDS011;62896;51.032;3.712;2024-02-04T02:25:38;22.3;;;8.1;;
74457;SDS011;62896;51.032;3.712;2024-02-04T02:28:58;22.3;;;8.1;;
74457;SDS011;62896;51.032;3.712;2024-02-04T02:32:18;22.3;;;8.1;;
74457;SDS011;62896;51.032;3.712;2024-02-04T02:35:38;22.3;;;8.1;;
74457;SDS011;62896;51.032;3.712;2024-02-04T02:38:59;22.3;;;8.1;;
74457;SDS011;62896;51.032;3.712;2024-02-04T02:42:18;20.7;;;6.6;;
74457;SDS011;62896;51.032;3.712;2024-02-04T02:45:38;20.7;;;6.6;;
74457;SDS011;62896;51.032;3.712;2024-02-04T02:48:58;20.7;;;6.6;;
74457;SDS011;62896;51.032;3.712;2024-02-04T02:52:18;20.7;;;6.6;;
74457;SDS011;62896;51.032;3.712;2024-02-04T02:55:38;20.7;;;6.6;;
74457;SDS011;62896;51.032;3.712;2024-02-04T02:58:58;20.7;;;6.6;;
74457;SDS011;62896;51.032;3.712;2024-02-04T03:02:18;20.7;;;6.6;;
74457;SDS011;62896;51.032;3.712;2024-02-04T03:05:38;27.2;;;6.2;;
74457;SDS011;62896;51.032;3.712;2024-02-04T03:08:58;27.2;;;6.2;;
74457;SDS011;62896;51.032;3.712;2024-02-04T03:12:18;27.2;;;6.2;;
74457;SDS011;62896;51.032;3.712;2024-02-04T03:15:38;27.2;;;6.2;;
74457;SDS011;62896;51.032;3.712;2024-02-04T03:18:58;27.2;;;6.2;;
74457;SDS011;62896;51.032;3.712;2024-02-04T03:22:18;27.2;;;6.2;;
74457;SDS011;62896;51.032;3.712;2024-02-04T03:25:38;27.2;;;6.2;;
74457;SDS011;62896;51.032;3.712;2024-02-04T03:28:58;27.2;;;6.2;;
74457;SDS011;62896;51.032;3.712;2024-02-04T03:32:18;13.8;;;5.4;;
74457;SDS011;62896;51.032;3.712;2024-02-04T03:35:38;13.8;;;5.4;;
74457;SDS011;62896;51.032;3.712;2024-02-04T03:38:58;13.8;;;5.4;;
74457;SDS011;62896;51.032;3.712;2024-02-04T03:42:18;13.8;;;5.4;;
74457;SDS011;62896;51.032;3.712;2024-02-04T03:45:38;13.8;;;5.4;;
74457;SDS011;62896;51.032;3.712;2024-02-04T03:48:58;13.8;;;5.4;;
74457;SDS011;62896;51.032;3.712;2024-02-04T03:52:18;13.8;;;5.4;;
74457;SDS011;62896;51.032;3.712;2024-02-04T03:55:38;17.6;;;5.6;;
74457;SDS011;62896;51.032;3.712;2024-02-04T03:58:58;17.6;;;5.6;;
74457;SDS011;62896;51.032;3.712;2024-02-04T04:02:18;17.6;;;5.6;;
74457;SDS011;62896;51.032;3.712;2024-02-04T04:05:38;17.6;;;5.6;;
74457;SDS011;62896;51.032;3.712;2024-02-04T04:08:58;17.6;;;5.6;;
74457;SDS011;62896;51.032;3.712;2024-02-04T04:12:18;17.6;;;5.6;;
74457;SDS011;62896;51.032;3.712;2024-02-04T04:15:38;17.6;;;5.6;;
74457;SDS011;62896;51.032;3.712;2024-02-04T04:18:58;17.6;;;5.6;;
74457;SDS011;62896;51.032;3.712;2024-02-04T04:22:18;20.9;;;5.8;;
74457;SDS011;62896;51.032;3.712;2024-02-04T04:25:38;20.9;;;5.8;;
74457;SDS011;62896;51.032;3.712;2024-02-04T04:28:58;20.9;;;5.8;;
74457;SDS011;62896;51.032;3.712;2024-02-04T04:32:18;20.9;;;5.8;;
74457;SDS011;62896;51.032;3.712;2024-02-04T04:35:38;20.9;;;5.8;;
74457;SDS011;62896;51.032;3.712;2024-02-04T04:38:58;20.9;;;5.8;;
74457;SDS011;62896;51.032;3.712;2024-02-04T04:42:18;20.9;;;5.8;;
74457;SDS011;62896;51.032;3.712;2024-02-04T04:45:38;16.3;;;5.1;;
74457;SDS011;62896;51.032;3.712;2024-02-04T04:48:58;16.3;;;5.1;;
74457;SDS011;62896;51.032;3.712;2024-02-04T04:52:18;16.3;;;5.1;;
74457;SDS011;62896;51.032;3.712;2024-02-04T04:55:38;16.3;;;5.1;;
74457;SDS011;62896;51.032;3.712;2024-02-04T04:58:58;16.3;;;5.1;;
74457;SDS011;62896;51.032;3.712;2024-02-04T05:02:18;16.3;;;5.1;;
74457;SDS011;62896;51.032;3.712;2024-02-04T05:05:38;16.3;;;5.1;;
74457;SDS011;62896;51.032;3.712;2024-02-04T05:08:58;16.3;;;5.1;;
74457;SDS011;62896;51.032;3.712;2024-02-04T05:12:18;14.5;;;4.2;;
74457;SDS011;62896;51.032;3.712;2024-02-04T05:15:38;14.5;;;4.2;;
74457;SDS011;62896;51.032;3.712;2024-02-04T05:18:58;14.5;;;4.2;;
74457;SDS011;62896;51.032;3.712;2024-02-04T05:22:18;14.5;;;4.2;;
74457;SDS011;62896;51.032;3.712;2024-02-04T05:25:38;14.5;;;4.2;;
74457;SDS011;62896;51.032;3.712;2024-02-04T05:28:58;14.5;;;4.2;;
74457;SDS011;62896;51.032;3.712;2024-02-04T05:32:18;14.5;;;4.2;;
74457;SDS011;62896;51.032;3.712;2024-02-04T05:35:38;13.5;;;4.3;;
74457;SDS011;62896;51.032;3.712;2024-02-04T05:39:08;13.5;;;4.3;;
74457;SDS011;62896;51.032;3.712;2024-02-04T05:42:18;13.5;;;4.3;;
74457;SDS011;62896;51.032;3.712;2024-02-04T05:45:38;13.5;;;4.3;;
74457;SDS011;62896;51.032;3.712;2024-02-04T05:48:58;13.5;;;4.3;;
74457;SDS011;62896;51.032;3.712;2024-02-04T05:52:18;13.5;;;4.3;;
74457;SDS011;62896;51.032;3.712;2024-02-04T05:55:38;13.5;;;4.3;;
74457;SDS011;62896;51.032;3.712;2024-02-04T05:58:58;13.5;;;4.3;;
74457;SDS011;62896;51.032;3.712;2024-02-04T06:02:18;15.3;;;4.4;;
74457;SDS011;62896;51.032;3.712;2024-02-04T06:05:38;15.3;;;4.4;;
74457;SDS011;62896;51.032;3.712;2024-02-04T06:08:58;15.3;;;4.4;;
74457;SDS011;62896;51.032;3.712;2024-02-04T06:12:18;15.3;;;4.4;;
74457;SDS011;62896;51.032;3.712;2024-02-04T06:15:38;15.3;;;4.4;;
74457;SDS011;62896;51.032;3.712;2024-02-04T06:18:58;15.3;;;4.4;;
74457;SDS011;62896;51.032;3.712;2024-02-04T06:22:18;15.3;;;4.4;;
74457;SDS011;62896;51.032;3.712;2024-02-04T06:25:38;12.7;;;4;;
74457;SDS011;62896;51.032;3.712;2024-02-04T06:28:58;12.7;;;4;;
74457;SDS011;62896;51.032;3.712;2024-02-04T06:32:18;12.7;;;4;;
74457;SDS011;62896;51.032;3.712;2024-02-04T06:35:38;12.7;;;4;;
74457;SDS011;62896;51.032;3.712;2024-02-04T06:38:58;12.7;;;4;;
74457;SDS011;62896;51.032;3.712;2024-02-04T06:42:18;12.7;;;4;;
74457;SDS011;62896;51.032;3.712;2024-02-04T06:45:38;12.7;;;4;;
74457;SDS011;62896;51.032;3.712;2024-02-04T06:48:58;12.7;;;4;;
74457;SDS011;62896;51.032;3.712;2024-02-04T06:52:18;9;;;3.1;;
74457;SDS011;62896;51.032;3.712;2024-02-04T06:55:38;9;;;3.1;;
74457;SDS011;62896;51.032;3.712;2024-02-04T06:58:58;9;;;3.1;;
74457;SDS011;62896;51.032;3.712;2024-02-04T07:02:18;9;;;3.1;;
74457;SDS011;62896;51.032;3.712;2024-02-04T07:05:38;9;;;3.1;;
74457;SDS011;62896;51.032;3.712;2024-02-04T07:08:58;9;;;3.1;;
74457;SDS011;62896;51.032;3.712;2024-02-04T07:12:18;9;;;3.1;;
74457;SDS011;62896;51.032;3.712;2024-02-04T07:15:38;8.1;;;2.8;;
74457;SDS011;62896;51.032;3.712;2024-02-04T07:18:58;8.1;;;2.8;;
74457;SDS011;62896;51.032;3.712;2024-02-04T07:22:18;8.1;;;2.8;;
74457;SDS011;62896;51.032;3.712;2024-02-04T07:25:38;8.1;;;2.8;;
74457;SDS011;62896;51.032;3.712;2024-02-04T07:28:58;8.1;;;2.8;;
74457;SDS011;62896;51.032;3.712;2024-02-04T07:32:18;8.1;;;2.8;;
74457;SDS011;62896;51.032;3.712;2024-02-04T07:35:38;8.1;;;2.8;;
74457;SDS011;62896;51.032;3.712;2024-02-04T07:38:58;8.1;;;2.8;;
74457;SDS011;62896;51.032;3.712;2024-02-04T07:42:18;5.5;;;1.9;;
74457;SDS011;62896;51.032;3.712;2024-02-04T07:45:38;5.5;;;1.9;;
74457;SDS011;62896;51.032;3.712;2024-02-04T07:48:58;5.5;;;1.9;;
74457;SDS011;62896;51.032;3.712;2024-02-04T07:52:18;5.5;;;1.9;;
74457;SDS011;62896;51.032;3.712;2024-02-04T07:55:38;5.5;;;1.9;;
74457;SDS011;62896;51.032;3.712;2024-02-04T07:58:58;5.5;;;1.9;;
74457;SDS011;62896;51.032;3.712;2024-02-04T08:02:18;5.5;;;1.9;;
74457;SDS011;62896;51.032;3.712;2024-02-04T08:05:38;7.7;;;2.4;;
74457;SDS011;62896;51.032;3.712;2024-02-04T08:08:58;7.7;;;2.4;;
74457;SDS011;62896;51.032;3.712;2024-02-04T08:12:18;7.7;;;2.4;;
74457;SDS011;62896;51.032;3.712;2024-02-04T08:15:38;7.7;;;2.4;;
74457;SDS011;62896;51.032;3.712;2024-02-04T08:18:58;7.7;;;2.4;;
74457;SDS011;62896;51.032;3.712;2024-02-04T08:22:18;7.7;;;2.4;;
74457;SDS011;62896;51.032;3.712;2024-02-04T08:25:38;7.7;;;2.4;;
74457;SDS011;62896;51.032;3.712;2024-02-04T08:28:59;7.7;;;2.4;;
74457;SDS011;62896;51.032;3.712;2024-02-04T08:32:18;8.9;;;2.2;;
74457;SDS011;62896;51.032;3.712;2024-02-04T08:35:38;8.9;;;2.2;;
74457;SDS011;62896;51.032;3.712;2024-02-04T08:38:58;8.9;;;2.2;;
74457;SDS011;62896;51.032;3.712;2024-02-04T08:42:18;8.9;;;2.2;;
74457;SDS011;62896;51.032;3.712;2024-02-04T08:45:38;8.9;;;2.2;;
74457;SDS011;62896;51.032;3.712;2024-02-04T08:48:58;8.9;;;2.2;;
74457;SDS011;62896;51.032;3.712;2024-02-04T08:52:18;8.9;;;2.2;;
74457;SDS011;62896;51.032;3.712;2024-02-04T08:55:38;8;;;2.9;;
74457;SDS011;62896;51.032;3.712;2024-02-04T08:58:58;8;;;2.9;;
74457;SDS011;62896;51.032;3.712;2024-02-04T09:02:18;8;;;2.9;;
74457;SDS011;62896;51.032;3.712;2024-02-04T09:05:38;8;;;2.9;;
74457;SDS011;62896;51.032;3.712;2024-02-04T09:08:58;8;;;2.9;;
74457;SDS011;62896;51.032;3.712;2024-02-04T09:12:18;8;;;2.9;;
74457;SDS011;62896;51.032;3.712;2024-02-04T09:15:38;8;;;2.9;;
74457;SDS011;62896;51.032;3.712;2024-02-04T09:18:58;8;;;2.9;;
74457;SDS011;62896;51.032;3.712;2024-02-04T09:22:18;6.1;;;2.4;;
74457;SDS011;62896;51.032;3.712;2024-02-04T09:25:38;6.1;;;2.4;;
74457;SDS011;62896;51.032;3.712;2024-02-04T09:28:58;6.1;;;2.4;;
74457;SDS011;62896;51.032;3.712;2024-02-04T09:32:18;6.1;;;2.4;;
74457;SDS011;62896;51.032;3.712;2024-02-04T09:35:38;6.1;;;2.4;;
74457;SDS011;62896;51.032;3.712;2024-02-04T09:38:58;6.1;;;2.4;;
74457;SDS011;62896;51.032;3.712;2024-02-04T09:42:19;6.1;;;2.4;;
74457;SDS011;62896;51.032;3.712;2024-02-04T09:45:38;8.7;;;2.2;;
74457;SDS011;62896;51.032;3.712;2024-02-04T09:48:58;8.7;;;2.2;;
74457;SDS011;62896;51.032;3.712;2024-02-04T09:52:18;8.7;;;2.2;;
74457;SDS011;62896;51.032;3.712;2024-02-04T09:55:38;8.7;;;2.2;;
74457;SDS011;62896;51.032;3.712;2024-02-04T09:58:58;8.7;;;2.2;;
74457;SDS011;62896;51.032;3.712;2024-02-04T10:02:18;8.7;;;2.2;;
74457;SDS011;62896;51.032;3.712;2024-02-04T10:05:38;8.7;;;2.2;;
74457;SDS011;62896;51.032;3.712;2024-02-04T10:08:58;8.7;;;2.2;;
74457;SDS011;62896;51.032;3.712;2024-02-04T10:12:18;6.1;;;1.4;;
74457;SDS011;62896;51.032;3.712;2024-02-04T10:15:38;6.1;;;1.4;;
74457;SDS011;62896;51.032;3.712;2024-02-04T10:18:58;6.1;;;1.4;;
74457;SDS011;62896;51.032;3.712;2024-02-04T10:22:18;6.1;;;1.4;;
74457;SDS011;62896;51.032;3.712;2024-02-04T10:25:38;6.1;;;1.4;;
74457;SDS011;62896;51.032;3.712;2024-02-04T10:28:58;6.1;;;1.4;;
74457;SDS011;62896;51.032;3.712;2024-02-04T10:32:21;6.1;;;1.4;;
74457;SDS011;62896;51.032;3.712;2024-02-04T10:35:38;8;;;2.2;;
74457;SDS011;62896;51.032;3.712;2024-02-04T10:38:58;8;;;2.2;;
74457;SDS011;62896;51.032;3.712;2024-02-04T10:42:18;8;;;2.2;;
74457;SDS011;62896;51.032;3.712;2024-02-04T10:45:38;8;;;2.2;;
74457;SDS011;62896;51.032;3.712;2024-02-04T10:48:59;8;;;2.2;;
74457;SDS011;62896;51.032;3.712;2024-02-04T10:52:18;8;;;2.2;;
74457;SDS011;62896;51.032;3.712;2024-02-04T10:55:40;8;;;2.2;;
74457;SDS011;62896;51.032;3.712;2024-02-04T10:58:58;8;;;2.2;;
74457;SDS011;62896;51.032;3.712;2024-02-04T11:02:19;9.4;;;2.1;;
74457;SDS011;62896;51.032;3.712;2024-02-04T11:05:38;9.4;;;2.1;;
74457;SDS011;62896;51.032;3.712;2024-02-04T11:08:58;9.4;;;2.1;;
74457;SDS011;62896;51.032;3.712;2024-02-04T11:12:18;9.4;;;2.1;;
74457;SDS011;62896;51.032;3.712;2024-02-04T11:15:38;9.4;;;2.1;;
74457;SDS011;62896;51.032;3.712;2024-02-04T11:19:01;9.4;;;2.1;;
74457;SDS011;62896;51.032;3.712;2024-02-04T11:22:22;9.4;;;2.1;;
74457;SDS011;62896;51.032;3.712;2024-02-04T11:25:41;8.2;;;2.3;;
74457;SDS011;62896;51.032;3.712;2024-02-04T11:28:58;8.2;;;2.3;;
74457;SDS011;62896;51.032;3.712;2024-02-04T11:32:18;8.2;;;2.3;;
74457;SDS011;62896;51.032;3.712;2024-02-04T11:35:38;8.2;;;2.3;;
74457;SDS011;62896;51.032;3.712;2024-02-04T11:38:58;8.2;;;2.3;;
74457;SDS011;62896;51.032;3.712;2024-02-04T11:42:18;8.2;;;2.3;;
74457;SDS011;62896;51.032;3.712;2024-02-04T11:45:38;8.2;;;2.3;;
74457;SDS011;62896;51.032;3.712;2024-02-04T11:48:59;8.2;;;2.3;;
74457;SDS011;62896;51.032;3.712;2024-02-04T11:52:18;8.3;;;1.9;;
74457;SDS011;62896;51.032;3.712;2024-02-04T11:55:38;8.3;;;1.9;;
74457;SDS011;62896;51.032;3.712;2024-02-04T11:58:58;8.3;;;1.9;;
74457;SDS011;62896;51.032;3.712;2024-02-04T12:02:18;8.3;;;1.9;;
74457;SDS011;62896;51.032;3.712;2024-02-04T12:05:38;8.3;;;1.9;;
74457;SDS011;62896;51.032;3.712;2024-02-04T12:08:58;8.3;;;1.9;;
74457;SDS011;62896;51.032;3.712;2024-02-04T12:12:18;8.3;;;1.9;;
74457;SDS011;62896;51.032;3.712;2024-02-04T12:15:38;7;;;1.8;;
74457;SDS011;62896;51.032;3.712;2024-02-04T12:18:58;7;;;1.8;;
74457;SDS011;62896;51.032;3.712;2024-02-04T12:22:18;7;;;1.8;;
74457;SDS011;62896;51.032;3.712;2024-02-04T12:25:38;7;;;1.8;;
74457;SDS011;62896;51.032;3.712;2024-02-04T12:28:58;7;;;1.8;;
74457;SDS011;62896;51.032;3.712;2024-02-04T12:32:18;7;;;1.8;;
74457;SDS011;62896;51.032;3.712;2024-02-04T12:35:38;7;;;1.8;;
74457;SDS011;62896;51.032;3.712;2024-02-04T12:38:58;7;;;1.8;;
74457;SDS011;62896;51.032;3.712;2024-02-04T12:42:18;8.6;;;1.6;;
74457;SDS011;62896;51.032;3.712;2024-02-04T12:45:38;8.6;;;1.6;;
74457;SDS011;62896;51.032;3.712;2024-02-04T12:48:58;8.6;;;1.6;;
74457;SDS011;62896;51.032;3.712;2024-02-04T12:52:20;8.6;;;1.6;;
74457;SDS011;62896;51.032;3.712;2024-02-04T12:55:38;8.6;;;1.6;;
74457;SDS011;62896;51.032;3.712;2024-02-04T12:58:58;8.6;;;1.6;;
74457;SDS011;62896;51.032;3.712;2024-02-04T13:02:18;8.6;;;1.6;;
74457;SDS011;62896;51.032;3.712;2024-02-04T13:05:38;8.3;;;2;;
74457;SDS011;62896;51.032;3.712;2024-02-04T13:08:58;8.3;;;2;;
74457;SDS011;62896;51.032;3.712;2024-02-04T13:12:18;8.3;;;2;;
74457;SDS011;62896;51.032;3.712;2024-02-04T13:15:38;8.3;;;2;;
74457;SDS011;62896;51.032;3.712;2024-02-04T13:18:58;8.3;;;2;;
74457;SDS011;62896;51.032;3.712;2024-02-04T13:22:18;8.3;;;2;;
74457;SDS011;62896;51.032;3.712;2024-02-04T13:25:38;8.3;;;2;;
74457;SDS011;62896;51.032;3.712;2024-02-04T13:28:58;8.3;;;2;;
74457;SDS011;62896;51.032;3.712;2024-02-04T13:32:18;7.4;;;2.1;;
74457;SDS011;62896;51.032;3.712;2024-02-04T13:35:38;7.4;;;2.1;;
74457;SDS011;62896;51.032;3.712;2024-02-04T13:38:58;7.4;;;2.1;;
74457;SDS011;62896;51.032;3.712;2024-02-04T13:42:18;7.4;;;2.1;;
74457;SDS011;62896;51.032;3.712;2024-02-04T13:45:38;7.4;;;2.1;;
74457;SDS011;62896;51.032;3.712;2024-02-04T13:48:58;7.4;;;2.1;;
74457;SDS011;62896;51.032;3.712;2024-02-04T13:52:18;7.4;;;2.1;;
74457;SDS011;62896;51.032;3.712;2024-02-04T13:55:38;9.5;;;2.2;;
74457;SDS011;62896;51.032;3.712;2024-02-04T13:58:58;9.5;;;2.2;;
74457;SDS011;62896;51.032;3.712;2024-02-04T14:02:18;9.5;;;2.2;;
74457;SDS011;62896;51.032;3.712;2024-02-04T14:05:38;9.5;;;2.2;;
74457;SDS011;62896;51.032;3.712;2024-02-04T14:08:58;9.5;;;2.2;;
74457;SDS011;62896;51.032;3.712;2024-02-04T14:12:18;9.5;;;2.2;;
74457;SDS011;62896;51.032;3.712;2024-02-04T14:15:38;9.5;;;2.2;;
74457;SDS011;62896;51.032;3.712;2024-02-04T14:18:58;9.5;;;2.2;;
74457;SDS011;62896;51.032;3.712;2024-02-04T14:22:18;9.3;;;2.2;;
74457;SDS011;62896;51.032;3.712;2024-02-04T14:25:38;9.3;;;2.2;;
74457;SDS011;62896;51.032;3.712;2024-02-04T14:28:58;9.3;;;2.2;;
74457;SDS011;62896;51.032;3.712;2024-02-04T14:32:18;9.3;;;2.2;;
74457;SDS011;62896;51.032;3.712;2024-02-04T14:35:38;9.3;;;2.2;;
74457;SDS011;62896;51.032;3.712;2024-02-04T14:38:58;9.3;;;2.2;;
74457;SDS011;62896;51.032;3.712;2024-02-04T14:42:18;9.3;;;2.2;;
74457;SDS011;62896;51.032;3.712;2024-02-04T14:45:38;13.2;;;3.3;;
74457;SDS011;62896;51.032;3.712;2024-02-04T14:48:58;13.2;;;3.3;;
74457;SDS011;62896;51.032;3.712;2024-02-04T14:52:18;13.2;;;3.3;;
74457;SDS011;62896;51.032;3.712;2024-02-04T14:55:38;13.2;;;3.3;;
74457;SDS011;62896;51.032;3.712;2024-02-04T14:58:58;13.2;;;3.3;;
74457;SDS011;62896;51.032;3.712;2024-02-04T15:02:18;13.2;;;3.3;;
74457;SDS011;62896;51.032;3.712;2024-02-04T15:05:39;13.2;;;3.3;;
74457;SDS011;62896;51.032;3.712;2024-02-04T15:08:58;13.2;;;3.3;;
74457;SDS011;62896;51.032;3.712;2024-02-04T15:12:18;12;;;2.4;;
74457;SDS011;62896;51.032;3.712;2024-02-04T15:15:38;12;;;2.4;;
74457;SDS011;62896;51.032;3.712;2024-02-04T15:18:58;12;;;2.4;;
74457;SDS011;62896;51.032;3.712;2024-02-04T15:22:18;12;;;2.4;;
74457;SDS011;62896;51.032;3.712;2024-02-04T15:25:38;12;;;2.4;;
74457;SDS011;62896;51.032;3.712;2024-02-04T15:28:58;12;;;2.4;;
74457;SDS011;62896;51.032;3.712;2024-02-04T15:32:18;12;;;2.4;;
74457;SDS011;62896;51.032;3.712;2024-02-04T15:35:38;13.8;;;2.5;;
74457;SDS011;62896;51.032;3.712;2024-02-04T15:38:58;13.8;;;2.5;;
74457;SDS011;62896;51.032;3.712;2024-02-04T15:42:18;13.8;;;2.5;;
74457;SDS011;62896;51.032;3.712;2024-02-04T15:45:38;13.8;;;2.5;;
74457;SDS011;62896;51.032;3.712;2024-02-04T15:48:58;13.8;;;2.5;;
74457;SDS011;62896;51.032;3.712;2024-02-04T15:52:18;13.8;;;2.5;;
74457;SDS011;62896;51.032;3.712;2024-02-04T15:55:38;13.8;;;2.5;;
74457;SDS011;62896;51.032;3.712;2024-02-04T15:59:06;13.8;;;2.5;;
74457;SDS011;62896;51.032;3.712;2024-02-04T16:02:19;14.5;;;2.4;;
74457;SDS011;62896;51.032;3.712;2024-02-04T16:05:38;14.5;;;2.4;;
74457;SDS011;62896;51.032;3.712;2024-02-04T16:08:58;14.5;;;2.4;;
74457;SDS011;62896;51.032;3.712;2024-02-04T16:12:19;14.5;;;2.4;;
74457;SDS011;62896;51.032;3.712;2024-02-04T16:15:38;14.5;;;2.4;;
74457;SDS011;62896;51.032;3.712;2024-02-04T16:18:58;14.5;;;2.4;;
74457;SDS011;62896;51.032;3.712;2024-02-04T16:22:19;14.5;;;2.4;;
74457;SDS011;62896;51.032;3.712;2024-02-04T16:25:38;9.4;;;2.1;;
74457;SDS011;62896;51.032;3.712;2024-02-04T16:28:58;9.4;;;2.1;;
74457;SDS011;62896;51.032;3.712;2024-02-04T16:32:18;9.4;;;2.1;;
74457;SDS011;62896;51.032;3.712;2024-02-04T16:35:38;9.4;;;2.1;;
74457;SDS011;62896;51.032;3.712;2024-02-04T16:38:58;9.4;;;2.1;;
74457;SDS011;62896;51.032;3.712;2024-02-04T16:42:18;9.4;;;2.1;;
74457;SDS011;62896;51.032;3.712;2024-02-04T16:45:38;9.4;;;2.1;;
74457;SDS011;62896;51.032;3.712;2024-02-04T16:48:58;9.4;;;2.1;;
74457;SDS011;62896;51.032;3.712;2024-02-04T16:52:18;10.6;;;2.7;;
74457;SDS011;62896;51.032;3.712;2024-02-04T16:55:38;10.6;;;2.7;;
74457;SDS011;62896;51.032;3.712;2024-02-04T16:58:58;10.6;;;2.7;;
74457;SDS011;62896;51.032;3.712;2024-02-04T17:02:18;10.6;;;2.7;;
74457;SDS011;62896;51.032;3.712;2024-02-04T17:05:38;10.6;;;2.7;;
74457;SDS011;62896;51.032;3.712;2024-02-04T17:08:58;10.6;;;2.7;;
74457;SDS011;62896;51.032;3.712;2024-02-04T17:12:18;10.6;;;2.7;;
74457;SDS011;62896;51.032;3.712;2024-02-04T17:15:38;11.4;;;2.6;;
74457;SDS011;62896;51.032;3.712;2024-02-04T17:18:59;11.4;;;2.6;;
74457;SDS011;62896;51.032;3.712;2024-02-04T17:22:18;11.4;;;2.6;;
74457;SDS011;62896;51.032;3.712;2024-02-04T17:25:38;11.4;;;2.6;;
74457;SDS011;62896;51.032;3.712;2024-02-04T17:28:58;11.4;;;2.6;;
74457;SDS011;62896;51.032;3.712;2024-02-04T17:32:18;11.4;;;2.6;;
74457;SDS011;62896;51.032;3.712;2024-02-04T17:35:38;11.4;;;2.6;;
74457;SDS011;62896;51.032;3.712;2024-02-04T17:38:58;11.4;;;2.6;;
74457;SDS011;62896;51.032;3.712;2024-02-04T17:42:18;13.6;;;2.9;;
74457;SDS011;62896;51.032;3.712;2024-02-04T17:45:38;13.6;;;2.9;;
74457;SDS011;62896;51.032;3.712;2024-02-04T17:48:58;13.6;;;2.9;;
74457;SDS011;62896;51.032;3.712;2024-02-04T17:52:19;13.6;;;2.9;;
74457;SDS011;62896;51.032;3.712;2024-02-04T17:55:38;13.6;;;2.9;;
74457;SDS011;62896;51.032;3.712;2024-02-04T17:58:58;13.6;;;2.9;;
74457;SDS011;62896;51.032;3.712;2024-02-04T18:02:18;13.6;;;2.9;;
74457;SDS011;62896;51.032;3.712;2024-02-04T18:05:38;13.3;;;2.9;;
74457;SDS011;62896;51.032;3.712;2024-02-04T18:08:58;13.3;;;2.9;;
74457;SDS011;62896;51.032;3.712;2024-02-04T18:12:18;13.3;;;2.9;;
74457;SDS011;62896;51.032;3.712;2024-02-04T18:15:38;13.3;;;2.9;;
74457;SDS011;62896;51.032;3.712;2024-02-04T18:18:58;13.3;;;2.9;;
74457;SDS011;62896;51.032;3.712;2024-02-04T18:22:18;13.3;;;2.9;;
74457;SDS011;62896;51.032;3.712;2024-02-04T18:25:38;13.3;;;2.9;;
74457;SDS011;62896;51.032;3.712;2024-02-04T18:28:59;13.3;;;2.9;;
74457;SDS011;62896;51.032;3.712;2024-02-04T18:32:18;13.7;;;3.2;;
74457;SDS011;62896;51.032;3.712;2024-02-04T18:35:38;13.7;;;3.2;;
74457;SDS011;62896;51.032;3.712;2024-02-04T18:38:58;13.7;;;3.2;;
74457;SDS011;62896;51.032;3.712;2024-02-04T18:42:18;13.7;;;3.2;;
74457;SDS011;62896;51.032;3.712;2024-02-04T18:45:38;13.7;;;3.2;;
74457;SDS011;62896;51.032;3.712;2024-02-04T18:48:58;13.7;;;3.2;;
74457;SDS011;62896;51.032;3.712;2024-02-04T18:52:18;13.7;;;3.2;;
74457;SDS011;62896;51.032;3.712;2024-02-04T18:55:38;19.8;;;3.5;;
74457;SDS011;62896;51.032;3.712;2024-02-04T18:58:58;19.8;;;3.5;;
74457;SDS011;62896;51.032;3.712;2024-02-04T19:02:18;19.8;;;3.5;;
74457;SDS011;62896;51.032;3.712;2024-02-04T19:05:38;19.8;;;3.5;;
74457;SDS011;62896;51.032;3.712;2024-02-04T19:08:58;19.8;;;3.5;;
74457;SDS011;62896;51.032;3.712;2024-02-04T19:12:18;19.8;;;3.5;;
74457;SDS011;62896;51.032;3.712;2024-02-04T19:15:38;19.8;;;3.5;;
74457;SDS011;62896;51.032;3.712;2024-02-04T19:18:58;19.8;;;3.5;;
74457;SDS011;62896;51.032;3.712;2024-02-04T19:22:18;17.7;;;3.7;;
74457;SDS011;62896;51.032;3.712;2024-02-04T19:25:38;17.7;;;3.7;;
74457;SDS011;62896;51.032;3.712;2024-02-04T19:28:58;17.7;;;3.7;;
74457;SDS011;62896;51.032;3.712;2024-02-04T19:32:18;17.7;;;3.7;;
74457;SDS011;62896;51.032;3.712;2024-02-04T19:35:38;17.7;;;3.7;;
74457;SDS011;62896;51.032;3.712;2024-02-04T19:38:58;17.7;;;3.7;;
74457;SDS011;62896;51.032;3.712;2024-02-04T19:42:18;17.7;;;3.7;;
74457;SDS011;62896;51.032;3.712;2024-02-04T19:45:38;16.3;;;3.6;;
74457;SDS011;62896;51.032;3.712;2024-02-04T19:48:58;16.3;;;3.6;;
74457;SDS011;62896;51.032;3.712;2024-02-04T19:52:18;16.3;;;3.6;;
74457;SDS011;62896;51.032;3.712;2024-02-04T19:55:38;16.3;;;3.6;;
74457;SDS011;62896;51.032;3.712;2024-02-04T19:58:58;16.3;;;3.6;;
74457;SDS011;62896;51.032;3.712;2024-02-04T20:02:19;16.3;;;3.6;;
74457;SDS011;62896;51.032;3.712;2024-02-04T20:05:38;16.3;;;3.6;;
74457;SDS011;62896;51.032;3.712;2024-02-04T20:08:58;16.3;;;3.6;;
74457;SDS011;62896;51.032;3.712;2024-02-04T20:12:18;18.7;;;4.1;;
74457;SDS011;62896;51.032;3.712;2024-02-04T20:15:38;18.7;;;4.1;;
74457;SDS011;62896;51.032;3.712;2024-02-04T20:18:58;18.7;;;4.1;;
74457;SDS011;62896;51.032;3.712;2024-02-04T20:22:18;18.7;;;4.1;;
74457;SDS011;62896;51.032;3.712;2024-02-04T20:25:38;18.7;;;4.1;;
74457;SDS011;62896;51.032;3.712;2024-02-04T20:28:58;18.7;;;4.1;;
74457;SDS011;62896;51.032;3.712;2024-02-04T20:32:18;18.7;;;4.1;;
74457;SDS011;62896;51.032;3.712;2024-02-04T20:35:38;16;;;3.5;;